sensor_id;sensor_type;location;lat;lon;timestamp;pressure;altitude;pressure_sealevel;temperature;humidity
73063;BME280;61230;46.328;19.972;2023-03-01T00:01:41;101721.19;;;2.77;100.00
73063;BME280;61230;46.328;19.972;2023-03-01T00:04:08;101716.72;;;2.80;100.00
73063;BME280;61230;46.328;19.972;2023-03-01T00:06:36;101721.31;;;2.96;100.00
73063;BME280;61230;46.328;19.972;2023-03-01T00:09:05;101705.72;;;2.96;100.00
73063;BME280;61230;46.328;19.972;2023-03-01T00:11:33;101687.97;;;2.85;100.00
73063;BME280;61230;46.328;19.972;2023-03-01T00:14:02;101699.00;;;2.90;100.00
73063;BME280;61230;46.328;19.972;2023-03-01T00:16:35;101718.91;;;2.91;100.00
73063;BME280;61230;46.328;19.972;2023-03-01T00:19:08;101707.41;;;2.97;100.00
73063;BME280;61230;46.328;19.972;2023-03-01T00:21:37;101622.94;;;2.43;100.00
73063;BME280;61230;46.328;19.972;2023-03-01T00:24:05;101708.16;;;3.00;100.00
73063;BME280;61230;46.328;19.972;2023-03-01T00:26:33;101683.53;;;2.87;100.00
73063;BME280;61230;46.328;19.972;2023-03-01T00:29:01;101703.69;;;3.04;100.00
73063;BME280;61230;46.328;19.972;2023-03-01T00:31:31;101653.34;;;2.63;100.00
73063;BME280;61230;46.328;19.972;2023-03-01T00:34:02;101707.34;;;2.98;100.00
73063;BME280;61230;46.328;19.972;2023-03-01T00:36:34;101695.09;;;2.80;100.00
73063;BME280;61230;46.328;19.972;2023-03-01T00:39:04;101699.44;;;2.79;100.00
73063;BME280;61230;46.328;19.972;2023-03-01T00:41:32;101652.78;;;2.55;100.00
73063;BME280;61230;46.328;19.972;2023-03-01T00:44:02;101684.59;;;2.83;100.00
73063;BME280;61230;46.328;19.972;2023-03-01T00:46:29;101678.22;;;2.90;100.00
73063;BME280;61230;46.328;19.972;2023-03-01T00:48:58;101675.94;;;2.82;100.00
73063;BME280;61230;46.328;19.972;2023-03-01T00:51:29;101678.00;;;2.74;100.00
73063;BME280;61230;46.328;19.972;2023-03-01T00:53:59;101676.78;;;2.83;100.00
73063;BME280;61230;46.328;19.972;2023-03-01T00:56:27;101665.16;;;2.70;100.00
73063;BME280;61230;46.328;19.972;2023-03-01T00:58:56;101663.06;;;2.79;100.00
73063;BME280;61230;46.328;19.972;2023-03-01T01:01:29;101676.63;;;2.64;100.00
73063;BME280;61230;46.328;19.972;2023-03-01T01:04:04;101660.87;;;2.69;100.00
73063;BME280;61230;46.328;19.972;2023-03-01T01:06:35;101609.72;;;2.49;100.00
73063;BME280;61230;46.328;19.972;2023-03-01T01:09:05;101659.81;;;2.74;100.00
73063;BME280;61230;46.328;19.972;2023-03-01T01:11:34;101656.34;;;2.74;100.00
73063;BME280;61230;46.328;19.972;2023-03-01T01:14:03;101653.31;;;2.84;100.00
73063;BME280;61230;46.328;19.972;2023-03-01T01:16:31;101655.78;;;2.87;100.00
73063;BME280;61230;46.328;19.972;2023-03-01T01:18:59;101649.28;;;2.77;100.00
73063;BME280;61230;46.328;19.972;2023-03-01T01:21:28;101646.44;;;2.83;100.00
73063;BME280;61230;46.328;19.972;2023-03-01T01:23:56;101645.53;;;2.84;100.00
73063;BME280;61230;46.328;19.972;2023-03-01T01:26:27;101649.16;;;2.80;100.00
73063;BME280;61230;46.328;19.972;2023-03-01T01:28:56;101642.16;;;2.82;100.00
73063;BME280;61230;46.328;19.972;2023-03-01T01:31:25;101647.59;;;2.76;100.00
73063;BME280;61230;46.328;19.972;2023-03-01T01:33:54;101640.41;;;2.83;100.00
73063;BME280;61230;46.328;19.972;2023-03-01T01:36:22;101626.69;;;2.79;100.00
73063;BME280;61230;46.328;19.972;2023-03-01T01:38:50;101624.72;;;2.84;100.00
73063;BME280;61230;46.328;19.972;2023-03-01T01:41:19;101623.34;;;2.76;100.00
73063;BME280;61230;46.328;19.972;2023-03-01T01:44:17;101622.34;;;2.80;100.00
73063;BME280;61230;46.328;19.972;2023-03-01T01:49:17;101621.72;;;2.73;100.00
73063;BME280;61230;46.328;19.972;2023-03-01T01:51:48;101564.72;;;2.49;100.00
73063;BME280;61230;46.328;19.972;2023-03-01T01:54:27;101614.53;;;2.80;100.00
73063;BME280;61230;46.328;19.972;2023-03-01T01:56:59;101614.22;;;2.87;100.00
73063;BME280;61230;46.328;19.972;2023-03-01T01:59:31;101617.41;;;2.94;100.00
73063;BME280;61230;46.328;19.972;2023-03-01T02:02:02;101561.91;;;2.53;100.00
73063;BME280;61230;46.328;19.972;2023-03-01T02:04:32;101559.63;;;2.46;100.00
73063;BME280;61230;46.328;19.972;2023-03-01T02:07:15;101608.44;;;2.81;100.00
73063;BME280;61230;46.328;19.972;2023-03-01T02:09:46;101610.97;;;2.82;100.00
73063;BME280;61230;46.328;19.972;2023-03-01T02:12:17;101600.63;;;2.81;100.00
73063;BME280;61230;46.328;19.972;2023-03-01T02:14:45;101552.97;;;2.60;100.00
73063;BME280;61230;46.328;19.972;2023-03-01T02:17:15;101600.31;;;2.88;100.00
73063;BME280;61230;46.328;19.972;2023-03-01T02:20:00;101605.28;;;2.95;100.00
73063;BME280;61230;46.328;19.972;2023-03-01T02:22:36;101599.66;;;2.83;100.00
73063;BME280;61230;46.328;19.972;2023-03-01T02:30:27;101545.97;;;2.62;100.00
73063;BME280;61230;46.328;19.972;2023-03-01T02:32:56;101597.22;;;3.01;100.00
73063;BME280;61230;46.328;19.972;2023-03-01T02:35:38;101543.25;;;2.65;100.00
73063;BME280;61230;46.328;19.972;2023-03-01T02:38:07;101594.16;;;2.91;100.00
73063;BME280;61230;46.328;19.972;2023-03-01T02:40:37;101585.97;;;3.00;100.00
73063;BME280;61230;46.328;19.972;2023-03-01T02:43:10;101540.28;;;2.74;100.00
73063;BME280;61230;46.328;19.972;2023-03-01T02:45:47;101584.91;;;3.04;99.41
73063;BME280;61230;46.328;19.972;2023-03-01T02:48:17;101590.97;;;3.05;99.74
73063;BME280;61230;46.328;19.972;2023-03-01T02:50:57;101592.41;;;3.12;99.25
73063;BME280;61230;46.328;19.972;2023-03-01T02:53:53;101598.59;;;3.09;98.75
73063;BME280;61230;46.328;19.972;2023-03-01T02:56:25;101591.91;;;3.04;98.99
73063;BME280;61230;46.328;19.972;2023-03-01T02:58:52;101587.62;;;3.01;98.73
73063;BME280;61230;46.328;19.972;2023-03-01T03:01:20;101583.13;;;3.06;98.37
73063;BME280;61230;46.328;19.972;2023-03-01T03:03:48;101579.59;;;3.07;98.66
73063;BME280;61230;46.328;19.972;2023-03-01T03:06:16;101524.69;;;2.74;99.11
73063;BME280;61230;46.328;19.972;2023-03-01T03:08:44;101568.63;;;3.01;98.95
73063;BME280;61230;46.328;19.972;2023-03-01T03:11:12;101576.94;;;3.09;98.46
73063;BME280;61230;46.328;19.972;2023-03-01T03:13:40;101571.78;;;3.07;99.03
73063;BME280;61230;46.328;19.972;2023-03-01T03:16:15;101567.09;;;3.15;98.63
73063;BME280;61230;46.328;19.972;2023-03-01T03:18:43;101570.94;;;3.07;98.55
73063;BME280;61230;46.328;19.972;2023-03-01T03:21:12;101559.59;;;3.09;98.03
73063;BME280;61230;46.328;19.972;2023-03-01T03:23:40;101562.22;;;3.28;97.66
73063;BME280;61230;46.328;19.972;2023-03-01T03:26:07;101555.34;;;3.27;97.62
73063;BME280;61230;46.328;19.972;2023-03-01T03:28:35;101532.63;;;3.12;97.56
73063;BME280;61230;46.328;19.972;2023-03-01T03:31:06;101548.47;;;3.26;97.69
73063;BME280;61230;46.328;19.972;2023-03-01T03:33:33;101562.63;;;3.39;97.39
73063;BME280;61230;46.328;19.972;2023-03-01T03:36:01;101567.56;;;3.45;97.29
73063;BME280;61230;46.328;19.972;2023-03-01T03:38:29;101566.66;;;3.46;96.44
73063;BME280;61230;46.328;19.972;2023-03-01T03:41:03;101567.81;;;3.39;96.79
73063;BME280;61230;46.328;19.972;2023-03-01T03:43:33;101564.19;;;3.43;96.74
73063;BME280;61230;46.328;19.972;2023-03-01T03:46:01;101555.53;;;3.42;96.76
73063;BME280;61230;46.328;19.972;2023-03-01T03:48:37;101553.81;;;3.41;97.29
73063;BME280;61230;46.328;19.972;2023-03-01T03:51:05;101552.56;;;3.31;97.83
73063;BME280;61230;46.328;19.972;2023-03-01T03:53:34;101560.94;;;3.18;98.67
73063;BME280;61230;46.328;19.972;2023-03-01T03:56:01;101559.75;;;3.25;98.73
73063;BME280;61230;46.328;19.972;2023-03-01T03:58:29;101554.66;;;3.42;98.69
73063;BME280;61230;46.328;19.972;2023-03-01T04:00:57;101553.97;;;3.38;98.16
73063;BME280;61230;46.328;19.972;2023-03-01T04:03:26;101555.19;;;3.30;99.14
73063;BME280;61230;46.328;19.972;2023-03-01T04:05:57;101549.09;;;3.31;98.98
73063;BME280;61230;46.328;19.972;2023-03-01T04:08:26;101552.56;;;3.31;98.66
73063;BME280;61230;46.328;19.972;2023-03-01T04:11:00;101552.34;;;3.36;98.86
73063;BME280;61230;46.328;19.972;2023-03-01T04:13:49;101552.47;;;3.33;98.92
73063;BME280;61230;46.328;19.972;2023-03-01T04:16:17;101542.94;;;3.52;98.30
73063;BME280;61230;46.328;19.972;2023-03-01T04:18:45;101546.84;;;3.62;97.48
73063;BME280;61230;46.328;19.972;2023-03-01T04:21:13;101546.69;;;3.65;97.29
73063;BME280;61230;46.328;19.972;2023-03-01T04:23:41;101538.09;;;3.44;97.52
73063;BME280;61230;46.328;19.972;2023-03-01T04:26:09;101502.19;;;3.14;97.87
73063;BME280;61230;46.328;19.972;2023-03-01T04:28:39;101537.38;;;3.41;98.21
73063;BME280;61230;46.328;19.972;2023-03-01T04:31:16;101552.72;;;3.47;98.29
73063;BME280;61230;46.328;19.972;2023-03-01T04:36:15;101562.31;;;3.26;99.47
73063;BME280;61230;46.328;19.972;2023-03-01T04:38:44;101552.09;;;3.22;99.82
73063;BME280;61230;46.328;19.972;2023-03-01T04:41:17;101539.81;;;3.25;100.00
73063;BME280;61230;46.328;19.972;2023-03-01T04:43:45;101545.84;;;3.26;100.00
73063;BME280;61230;46.328;19.972;2023-03-01T04:46:16;101543.38;;;3.43;99.80
73063;BME280;61230;46.328;19.972;2023-03-01T04:48:44;101542.94;;;3.52;99.34
73063;BME280;61230;46.328;19.972;2023-03-01T04:51:12;101540.62;;;3.46;99.21
73063;BME280;61230;46.328;19.972;2023-03-01T04:53:41;101536.19;;;3.48;99.44
73063;BME280;61230;46.328;19.972;2023-03-01T04:56:10;101533.16;;;3.38;99.52
73063;BME280;61230;46.328;19.972;2023-03-01T04:58:37;101468.34;;;2.95;100.00
73063;BME280;61230;46.328;19.972;2023-03-01T05:01:16;101527.03;;;3.01;100.00
73063;BME280;61230;46.328;19.972;2023-03-01T05:03:47;101529.22;;;3.10;100.00
73063;BME280;61230;46.328;19.972;2023-03-01T05:06:15;101526.75;;;3.07;100.00
73063;BME280;61230;46.328;19.972;2023-03-01T05:08:44;101526.91;;;3.04;100.00
73063;BME280;61230;46.328;19.972;2023-03-01T05:11:12;101529.28;;;3.08;100.00
73063;BME280;61230;46.328;19.972;2023-03-01T05:13:41;101532.63;;;3.12;100.00
73063;BME280;61230;46.328;19.972;2023-03-01T05:16:09;101527.00;;;3.21;100.00
73063;BME280;61230;46.328;19.972;2023-03-01T05:18:39;101528.81;;;3.19;100.00
73063;BME280;61230;46.328;19.972;2023-03-01T05:21:10;101480.25;;;3.01;99.29
73063;BME280;61230;46.328;19.972;2023-03-01T05:23:38;101529.41;;;3.25;98.88
73063;BME280;61230;46.328;19.972;2023-03-01T05:26:06;101532.84;;;3.26;98.62
73063;BME280;61230;46.328;19.972;2023-03-01T05:28:52;101536.00;;;3.32;98.30
73063;BME280;61230;46.328;19.972;2023-03-01T05:31:23;101486.97;;;3.05;98.04
73063;BME280;61230;46.328;19.972;2023-03-01T05:33:51;101536.25;;;3.46;97.45
73063;BME280;61230;46.328;19.972;2023-03-01T05:36:20;101543.09;;;3.49;97.60
73063;BME280;61230;46.328;19.972;2023-03-01T05:38:48;101537.03;;;3.48;97.29
73063;BME280;61230;46.328;19.972;2023-03-01T05:41:15;101539.47;;;3.33;98.01
73063;BME280;61230;46.328;19.972;2023-03-01T05:43:44;101538.47;;;3.35;97.84
73063;BME280;61230;46.328;19.972;2023-03-01T05:46:12;101545.25;;;3.39;97.87
73063;BME280;61230;46.328;19.972;2023-03-01T05:48:42;101553.31;;;3.33;98.25
73063;BME280;61230;46.328;19.972;2023-03-01T05:51:11;101549.97;;;3.50;97.68
73063;BME280;61230;46.328;19.972;2023-03-01T05:53:39;101547.41;;;3.30;98.41
73063;BME280;61230;46.328;19.972;2023-03-01T05:56:07;101551.56;;;3.34;98.73
73063;BME280;61230;46.328;19.972;2023-03-01T05:58:35;101555.91;;;3.33;98.51
73063;BME280;61230;46.328;19.972;2023-03-01T06:01:11;101497.19;;;3.09;98.67
73063;BME280;61230;46.328;19.972;2023-03-01T06:03:39;101540.69;;;3.44;98.39
73063;BME280;61230;46.328;19.972;2023-03-01T06:06:07;101559.88;;;3.42;98.63
73063;BME280;61230;46.328;19.972;2023-03-01T06:08:34;101544.41;;;3.39;98.31
73063;BME280;61230;46.328;19.972;2023-03-01T06:11:02;101548.75;;;3.38;98.86
73063;BME280;61230;46.328;19.972;2023-03-01T06:13:30;101551.50;;;3.35;98.78
73063;BME280;61230;46.328;19.972;2023-03-01T06:15:57;101541.03;;;3.37;99.20
73063;BME280;61230;46.328;19.972;2023-03-01T06:18:25;101549.09;;;3.31;99.09
73063;BME280;61230;46.328;19.972;2023-03-01T06:20:53;101553.09;;;3.38;98.30
73063;BME280;61230;46.328;19.972;2023-03-01T06:23:22;101545.59;;;3.32;98.74
73063;BME280;61230;46.328;19.972;2023-03-01T06:25:51;101520.75;;;3.25;98.55
73063;BME280;61230;46.328;19.972;2023-03-01T06:28:18;101558.19;;;3.41;98.42
73063;BME280;61230;46.328;19.972;2023-03-01T06:30:46;101553.06;;;3.39;98.65
73063;BME280;61230;46.328;19.972;2023-03-01T06:33:14;101466.03;;;2.89;97.91
73063;BME280;61230;46.328;19.972;2023-03-01T06:35:42;101513.03;;;3.23;97.53
73063;BME280;61230;46.328;19.972;2023-03-01T06:38:09;101565.59;;;3.50;97.47
73063;BME280;61230;46.328;19.972;2023-03-01T06:40:37;101517.38;;;3.23;96.75
73063;BME280;61230;46.328;19.972;2023-03-01T06:43:05;101564.81;;;3.48;96.87
73063;BME280;61230;46.328;19.972;2023-03-01T06:45:34;101559.47;;;3.51;96.90
73063;BME280;61230;46.328;19.972;2023-03-01T06:48:06;101563.81;;;3.51;96.80
73063;BME280;61230;46.328;19.972;2023-03-01T06:50:35;101566.94;;;3.59;96.45
73063;BME280;61230;46.328;19.972;2023-03-01T06:53:04;101569.63;;;3.57;96.08
73063;BME280;61230;46.328;19.972;2023-03-01T06:55:32;101561.00;;;3.55;96.48
73063;BME280;61230;46.328;19.972;2023-03-01T06:58:01;101575.38;;;3.64;95.59
73063;BME280;61230;46.328;19.972;2023-03-01T07:00:31;101579.75;;;3.82;94.86
73063;BME280;61230;46.328;19.972;2023-03-01T07:03:00;101572.59;;;3.87;94.11
73063;BME280;61230;46.328;19.972;2023-03-01T07:05:30;101574.56;;;3.82;94.05
73063;BME280;61230;46.328;19.972;2023-03-01T07:07:58;101581.53;;;3.81;93.89
73063;BME280;61230;46.328;19.972;2023-03-01T07:10:26;101585.97;;;3.79;93.90
73063;BME280;61230;46.328;19.972;2023-03-01T07:12:56;101577.16;;;4.00;93.42
73063;BME280;61230;46.328;19.972;2023-03-01T07:15:25;101570.28;;;3.99;93.08
73063;BME280;61230;46.328;19.972;2023-03-01T07:17:53;101570.56;;;3.93;92.34
73063;BME280;61230;46.328;19.972;2023-03-01T07:20:22;101581.66;;;4.16;92.27
73063;BME280;61230;46.328;19.972;2023-03-01T07:22:54;101580.94;;;4.12;91.00
73063;BME280;61230;46.328;19.972;2023-03-01T07:25:22;101575.75;;;4.31;91.47
73063;BME280;61230;46.328;19.972;2023-03-01T07:27:53;101577.06;;;4.21;90.90
73063;BME280;61230;46.328;19.972;2023-03-01T07:30:22;101569.88;;;4.26;90.42
73063;BME280;61230;46.328;19.972;2023-03-01T07:32:55;101583.41;;;4.15;90.69
73063;BME280;61230;46.328;19.972;2023-03-01T07:35:25;101569.53;;;4.33;90.62
73063;BME280;61230;46.328;19.972;2023-03-01T07:37:53;101571.19;;;4.17;90.42
73063;BME280;61230;46.328;19.972;2023-03-01T07:40:22;101520.38;;;3.90;90.84
73063;BME280;61230;46.328;19.972;2023-03-01T07:42:57;101568.06;;;4.28;91.21
73063;BME280;61230;46.328;19.972;2023-03-01T07:45:26;101568.59;;;4.34;90.30
73063;BME280;61230;46.328;19.972;2023-03-01T07:47:55;101563.16;;;4.22;90.23
73063;BME280;61230;46.328;19.972;2023-03-01T07:50:23;101530.78;;;4.09;90.74
73063;BME280;61230;46.328;19.972;2023-03-01T07:52:52;101558.94;;;4.19;89.90
73063;BME280;61230;46.328;19.972;2023-03-01T07:55:20;101559.34;;;4.10;90.91
73063;BME280;61230;46.328;19.972;2023-03-01T07:57:48;101569.25;;;4.21;91.15
73063;BME280;61230;46.328;19.972;2023-03-01T08:00:16;101562.00;;;4.27;90.78
73063;BME280;61230;46.328;19.972;2023-03-01T08:02:45;101560.91;;;4.14;91.72
73063;BME280;61230;46.328;19.972;2023-03-01T08:05:13;101558.50;;;4.10;91.64
73063;BME280;61230;46.328;19.972;2023-03-01T08:07:41;101558.84;;;4.21;91.69
73063;BME280;61230;46.328;19.972;2023-03-01T08:10:10;101559.63;;;4.23;91.77
73063;BME280;61230;46.328;19.972;2023-03-01T08:12:37;101504.75;;;3.90;91.75
73063;BME280;61230;46.328;19.972;2023-03-01T08:15:05;101556.47;;;4.52;90.56
73063;BME280;61230;46.328;19.972;2023-03-01T08:17:37;101552.25;;;4.49;90.52
73063;BME280;61230;46.328;19.972;2023-03-01T08:20:07;101565.00;;;4.20;91.12
73063;BME280;61230;46.328;19.972;2023-03-01T08:22:36;101509.69;;;3.96;91.09
73063;BME280;61230;46.328;19.972;2023-03-01T08:25:04;101553.62;;;4.39;90.43
73063;BME280;61230;46.328;19.972;2023-03-01T08:27:32;101550.38;;;4.34;90.59
73063;BME280;61230;46.328;19.972;2023-03-01T08:30:03;101558.97;;;4.36;91.13
73063;BME280;61230;46.328;19.972;2023-03-01T08:32:36;101508.31;;;4.25;91.02
73063;BME280;61230;46.328;19.972;2023-03-01T08:35:04;101553.81;;;4.71;91.18
73063;BME280;61230;46.328;19.972;2023-03-01T08:37:31;101499.97;;;4.52;90.47
73063;BME280;61230;46.328;19.972;2023-03-01T08:40:03;101549.44;;;4.54;90.06
73063;BME280;61230;46.328;19.972;2023-03-01T08:42:35;101561.38;;;4.58;90.58
73063;BME280;61230;46.328;19.972;2023-03-01T08:45:03;101556.16;;;4.58;90.11
73063;BME280;61230;46.328;19.972;2023-03-01T08:47:32;101553.97;;;4.68;90.41
73063;BME280;61230;46.328;19.972;2023-03-01T08:50:02;101538.19;;;4.71;89.60
73063;BME280;61230;46.328;19.972;2023-03-01T08:52:32;101530.56;;;4.83;89.05
73063;BME280;61230;46.328;19.972;2023-03-01T08:54:59;101510.81;;;4.62;89.58
73063;BME280;61230;46.328;19.972;2023-03-01T08:57:29;101533.94;;;5.02;88.85
73063;BME280;61230;46.328;19.972;2023-03-01T09:00:00;101533.56;;;4.93;88.89
73063;BME280;61230;46.328;19.972;2023-03-01T09:02:29;101533.72;;;4.73;88.10
73063;BME280;61230;46.328;19.972;2023-03-01T09:04:57;101534.28;;;4.79;88.28
73063;BME280;61230;46.328;19.972;2023-03-01T09:07:26;101539.34;;;4.82;88.23
73063;BME280;61230;46.328;19.972;2023-03-01T09:09:56;101535.63;;;4.86;87.59
73063;BME280;61230;46.328;19.972;2023-03-01T09:12:23;101485.19;;;4.70;87.76
73063;BME280;61230;46.328;19.972;2023-03-01T09:14:52;101544.34;;;5.19;87.22
73063;BME280;61230;46.328;19.972;2023-03-01T09:17:20;101533.28;;;5.32;86.44
73063;BME280;61230;46.328;19.972;2023-03-01T09:19:48;101531.06;;;5.41;85.60
73063;BME280;61230;46.328;19.972;2023-03-01T09:22:16;101521.94;;;5.48;86.44
73063;BME280;61230;46.328;19.972;2023-03-01T09:24:44;101521.09;;;5.48;85.44
73063;BME280;61230;46.328;19.972;2023-03-01T09:27:12;101524.25;;;5.54;86.17
73063;BME280;61230;46.328;19.972;2023-03-01T09:29:41;101517.09;;;5.58;85.40
73063;BME280;61230;46.328;19.972;2023-03-01T09:32:12;101502.19;;;5.60;85.00
73063;BME280;61230;46.328;19.972;2023-03-01T09:34:40;101500.47;;;5.92;84.22
73063;BME280;61230;46.328;19.972;2023-03-01T09:37:27;101502.72;;;5.82;84.44
73063;BME280;61230;46.328;19.972;2023-03-01T09:39:55;101475.44;;;5.72;83.58
73063;BME280;61230;46.328;19.972;2023-03-01T09:42:22;101491.97;;;5.88;85.31
73063;BME280;61230;46.328;19.972;2023-03-01T09:45:01;101480.16;;;6.12;84.98
73063;BME280;61230;46.328;19.972;2023-03-01T09:47:35;101484.50;;;6.27;84.49
73063;BME280;61230;46.328;19.972;2023-03-01T09:50:15;101486.38;;;6.25;84.83
73063;BME280;61230;46.328;19.972;2023-03-01T09:53:00;101484.97;;;6.50;84.37
73063;BME280;61230;46.328;19.972;2023-03-01T09:55:44;101491.00;;;6.66;82.12
73063;BME280;61230;46.328;19.972;2023-03-01T10:01:35;101480.75;;;6.47;83.83
73063;BME280;61230;46.328;19.972;2023-03-01T10:04:39;101484.34;;;6.60;83.54
73063;BME280;61230;46.328;19.972;2023-03-01T10:09:56;101491.50;;;6.72;83.12
73063;BME280;61230;46.328;19.972;2023-03-01T10:12:33;101498.22;;;6.76;83.10
73063;BME280;61230;46.328;19.972;2023-03-01T10:15:06;101492.81;;;6.93;82.93
73063;BME280;61230;46.328;19.972;2023-03-01T10:17:43;101493.97;;;6.89;82.23
73063;BME280;61230;46.328;19.972;2023-03-01T10:20:25;101452.50;;;6.68;81.89
73063;BME280;61230;46.328;19.972;2023-03-01T10:22:54;101454.06;;;6.86;81.03
73063;BME280;61230;46.328;19.972;2023-03-01T10:31:22;101490.28;;;6.78;83.26
73063;BME280;61230;46.328;19.972;2023-03-01T10:33:55;101491.34;;;7.04;82.66
73063;BME280;61230;46.328;19.972;2023-03-01T10:36:24;101472.19;;;7.17;82.64
73063;BME280;61230;46.328;19.972;2023-03-01T10:38:54;101473.03;;;7.46;81.54
73063;BME280;61230;46.328;19.972;2023-03-01T10:41:24;101469.38;;;7.48;80.78
73063;BME280;61230;46.328;19.972;2023-03-01T10:43:57;101472.00;;;7.63;81.06
73063;BME280;61230;46.328;19.972;2023-03-01T10:46:33;101425.28;;;7.28;80.97
73063;BME280;61230;46.328;19.972;2023-03-01T10:49:15;101418.66;;;7.09;81.37
73063;BME280;61230;46.328;19.972;2023-03-01T10:51:45;101461.59;;;7.47;80.85
73063;BME280;61230;46.328;19.972;2023-03-01T10:56:53;101454.91;;;7.84;80.38
73063;BME280;61230;46.328;19.972;2023-03-01T10:59:26;101452.88;;;7.61;80.77
73063;BME280;61230;46.328;19.972;2023-03-01T11:04:58;101434.09;;;7.68;80.16
73063;BME280;61230;46.328;19.972;2023-03-01T11:07:26;101427.34;;;7.64;79.66
73063;BME280;61230;46.328;19.972;2023-03-01T11:09:55;101386.28;;;7.24;80.42
73063;BME280;61230;46.328;19.972;2023-03-01T11:12:23;101416.63;;;7.81;80.33
73063;BME280;61230;46.328;19.972;2023-03-01T11:14:54;101418.59;;;7.78;79.86
73063;BME280;61230;46.328;19.972;2023-03-01T11:17:30;101417.50;;;8.21;78.14
73063;BME280;61230;46.328;19.972;2023-03-01T11:20:20;101408.91;;;8.58;77.67
73063;BME280;61230;46.328;19.972;2023-03-01T11:22:57;101412.41;;;8.32;77.55
73063;BME280;61230;46.328;19.972;2023-03-01T11:25:33;101412.53;;;8.31;78.00
73063;BME280;61230;46.328;19.972;2023-03-01T11:28:03;101403.84;;;8.55;77.01
73063;BME280;61230;46.328;19.972;2023-03-01T11:30:48;101392.63;;;8.66;76.13
73063;BME280;61230;46.328;19.972;2023-03-01T11:36:34;101384.47;;;8.71;76.31
73063;BME280;61230;46.328;19.972;2023-03-01T11:42:05;101381.00;;;8.70;76.64
73063;BME280;61230;46.328;19.972;2023-03-01T11:44:51;101360.19;;;9.05;75.84
73063;BME280;61230;46.328;19.972;2023-03-01T11:50:07;101358.84;;;9.59;75.55
73063;BME280;61230;46.328;19.972;2023-03-01T12:01:32;101336.13;;;9.47;73.60
73063;BME280;61230;46.328;19.972;2023-03-01T12:09:48;101330.62;;;9.74;73.45
73063;BME280;61230;46.328;19.972;2023-03-01T12:12:27;101333.81;;;9.43;73.69
73063;BME280;61230;46.328;19.972;2023-03-01T12:26:36;101304.37;;;10.20;73.07
73063;BME280;61230;46.328;19.972;2023-03-01T12:29:48;101301.06;;;10.29;71.53
73063;BME280;61230;46.328;19.972;2023-03-01T12:34:55;101286.44;;;10.14;71.04
73063;BME280;61230;46.328;19.972;2023-03-01T12:37:53;101245.16;;;9.92;71.05
73063;BME280;61230;46.328;19.972;2023-03-01T12:50:53;101283.41;;;10.75;71.27
73063;BME280;61230;46.328;19.972;2023-03-01T12:53:27;101295.13;;;10.71;70.52
73063;BME280;61230;46.328;19.972;2023-03-01T12:56:01;101292.00;;;10.33;70.36
73063;BME280;61230;46.328;19.972;2023-03-01T13:01:55;101266.59;;;10.87;69.36
73063;BME280;61230;46.328;19.972;2023-03-01T13:20:52;101246.06;;;10.59;71.23
73063;BME280;61230;46.328;19.972;2023-03-01T13:33:48;101241.25;;;10.86;69.79
73063;BME280;61230;46.328;19.972;2023-03-01T13:38:59;101231.22;;;10.80;70.42
73063;BME280;61230;46.328;19.972;2023-03-01T13:46:54;101180.91;;;10.41;70.84
73063;BME280;61230;46.328;19.972;2023-03-01T13:49:27;101207.06;;;10.53;71.01
73063;BME280;61230;46.328;19.972;2023-03-01T13:55:19;101213.50;;;10.82;70.63
73063;BME280;61230;46.328;19.972;2023-03-01T13:57:54;101214.97;;;10.75;70.19
73063;BME280;61230;46.328;19.972;2023-03-01T14:00:38;101226.69;;;10.60;70.67
73063;BME280;61230;46.328;19.972;2023-03-01T14:03:14;101226.91;;;10.68;70.40
73063;BME280;61230;46.328;19.972;2023-03-01T14:06:09;101221.38;;;10.93;69.74
73063;BME280;61230;46.328;19.972;2023-03-01T14:08:45;101217.50;;;11.09;68.85
73063;BME280;61230;46.328;19.972;2023-03-01T14:14:50;101218.12;;;11.33;67.65
73063;BME280;61230;46.328;19.972;2023-03-01T14:20:20;101211.41;;;11.08;68.21
73063;BME280;61230;46.328;19.972;2023-03-01T14:22:52;101216.41;;;11.11;68.10
73063;BME280;61230;46.328;19.972;2023-03-01T14:25:29;101210.31;;;11.11;67.52
73063;BME280;61230;46.328;19.972;2023-03-01T14:27:59;101206.97;;;11.09;68.19
73063;BME280;61230;46.328;19.972;2023-03-01T14:30:37;101204.16;;;11.21;68.13
73063;BME280;61230;46.328;19.972;2023-03-01T14:33:27;101197.88;;;11.33;68.07
73063;BME280;61230;46.328;19.972;2023-03-01T14:36:04;101192.97;;;11.40;67.24
73063;BME280;61230;46.328;19.972;2023-03-01T14:38:38;101185.06;;;11.61;66.91
73063;BME280;61230;46.328;19.972;2023-03-01T14:41:14;101182.81;;;11.56;65.71
73063;BME280;61230;46.328;19.972;2023-03-01T14:43:51;101185.44;;;11.56;66.08
73063;BME280;61230;46.328;19.972;2023-03-01T14:49:13;101165.97;;;11.68;66.11
73063;BME280;61230;46.328;19.972;2023-03-01T14:51:52;101178.72;;;11.84;65.84
73063;BME280;61230;46.328;19.972;2023-03-01T14:54:40;101172.75;;;11.82;66.06
73063;BME280;61230;46.328;19.972;2023-03-01T14:57:18;101124.13;;;11.54;65.46
73063;BME280;61230;46.328;19.972;2023-03-01T14:59:50;101157.34;;;11.87;65.58
73063;BME280;61230;46.328;19.972;2023-03-01T15:02:23;101152.22;;;11.85;65.15
73063;BME280;61230;46.328;19.972;2023-03-01T15:04:58;101153.16;;;11.64;66.33
73063;BME280;61230;46.328;19.972;2023-03-01T15:07:31;101149.81;;;11.41;67.60
73063;BME280;61230;46.328;19.972;2023-03-01T15:10:02;101115.37;;;11.12;67.44
73063;BME280;61230;46.328;19.972;2023-03-01T15:12:35;101159.84;;;11.26;67.63
73063;BME280;61230;46.328;19.972;2023-03-01T15:15:30;101107.31;;;10.93;68.07